Time;durP1;ratioP1;P1;durP2;ratioP2;P2;SDS_P1;SDS_P2;PMS_P1;PMS_P2;Temp;Humidity;BMP_temperature;BMP_pressure;BME280_temperature;BME280_humidity;BME280_pressure;Samples;Min_cycle;Max_cycle;Signal;HPM_P1;HPM_P2
2023/01/04 00:01:32;;;;;;;25.60;7.33;;;7.80;78.80;7.50;97658.00;;;;5035474;28;20228;-84
2023/01/04 00:04:00;;;;;;;12.97;6.37;;;7.80;78.80;7.50;97652.00;;;;5035036;28;20313;-84
2023/01/04 00:06:27;;;;;;;10.50;6.37;;;7.80;78.90;7.50;97645.00;;;;5036014;28;20256;-84
2023/01/04 00:08:57;;;;;;;12.80;6.33;;;7.70;78.80;7.50;97648.00;;;;5032043;28;20735;-84
2023/01/04 00:11:25;;;;;;;11.27;6.20;;;7.70;78.80;7.50;97638.00;;;;5032000;28;20260;-84
2023/01/04 00:13:58;;;;;;;14.50;6.67;;;7.70;79.00;7.50;97640.00;;;;5036127;28;20292;-83
2023/01/04 00:16:28;;;;;;;15.97;6.67;;;7.70;78.90;7.50;97644.00;;;;5037284;28;20216;-84
2023/01/04 00:18:56;;;;;;;12.03;6.10;;;7.70;78.70;7.40;97628.00;;;;5037180;28;20604;-84
2023/01/04 00:21:26;;;;;;;18.93;7.23;;;7.70;78.50;7.40;97644.00;;;;5039098;28;20203;-84
2023/01/04 00:23:55;;;;;;;9.53;6.47;;;7.60;79.00;7.40;97635.00;;;;5039148;28;20225;-84
2023/01/04 00:26:25;;;;;;;13.43;6.50;;;7.60;78.30;7.30;97637.00;;;;5039673;28;20229;-84
2023/01/04 00:28:57;;;;;;;14.17;6.07;;;7.60;78.30;7.30;97636.00;;;;5039074;28;20671;-84
2023/01/04 00:31:25;;;;;;;11.93;6.00;;;7.60;78.10;7.30;97624.00;;;;5039832;28;20240;-83
2023/01/04 00:33:54;;;;;;;9.30;5.50;;;7.60;77.90;7.20;97616.00;;;;5039335;28;20303;-84
2023/01/04 00:36:21;;;;;;;15.67;5.93;;;7.50;77.70;7.10;97620.00;;;;5038313;28;20292;-84
2023/01/04 00:39:05;;;;;;;5.90;5.30;;;7.50;77.60;7.10;97632.00;;;;5039023;28;20200;-84
2023/01/04 00:41:34;;;;;;;7.30;5.10;;;7.40;77.60;7.10;97623.00;;;;5038379;28;20604;-84
2023/01/04 00:44:03;;;;;;;12.20;5.33;;;7.40;77.90;7.00;97622.00;;;;5036348;28;20299;-84
2023/01/04 00:46:31;;;;;;;17.87;5.53;;;7.40;77.80;7.00;97617.00;;;;5039319;28;20225;-84
2023/01/04 00:48:59;;;;;;;10.00;5.20;;;7.30;77.90;7.00;97633.00;;;;5038847;28;20286;-84
2023/01/04 00:51:27;;;;;;;16.60;5.97;;;7.30;78.10;7.00;97619.00;;;;5038109;28;20276;-83
2023/01/04 00:53:54;;;;;;;5.80;5.03;;;7.30;78.20;7.00;97616.00;;;;5039116;28;20305;-84
2023/01/04 00:56:22;;;;;;;13.03;5.47;;;7.30;78.40;7.00;97609.00;;;;5038466;28;20291;-84
2023/01/04 00:58:49;;;;;;;18.13;5.30;;;7.30;78.50;7.00;97606.00;;;;5038325;28;20193;-84
2023/01/04 01:01:17;;;;;;;8.83;6.00;;;7.30;78.60;7.00;97601.00;;;;5038767;28;20313;-85
2023/01/04 01:03:44;;;;;;;15.90;5.80;;;7.20;78.50;7.00;97588.00;;;;5037492;28;20211;-84
2023/01/04 01:06:12;;;;;;;16.50;5.33;;;7.20;78.60;7.00;97588.00;;;;5039436;28;21142;-84
2023/01/04 01:08:40;;;;;;;23.60;5.83;;;7.20;78.60;7.00;97593.00;;;;5037577;28;20198;-84
2023/01/04 01:11:10;;;;;;;8.67;5.27;;;7.20;78.50;7.00;97599.00;;;;5039611;28;20732;-85
2023/01/04 01:13:38;;;;;;;30.57;6.27;;;7.20;78.40;7.00;97603.00;;;;5035276;28;20205;-84
2023/01/04 01:16:08;;;;;;;15.80;5.40;;;7.20;78.60;7.00;97610.00;;;;5037612;28;20320;-84
2023/01/04 01:18:39;;;;;;;28.00;6.60;;;7.20;78.60;7.00;97600.00;;;;5036317;28;20211;-84
2023/01/04 01:21:08;;;;;;;31.20;6.43;;;7.20;78.80;7.00;97600.00;;;;5035145;28;20206;-84
2023/01/04 01:23:36;;;;;;;19.93;6.67;;;7.20;78.80;7.00;97601.00;;;;5036253;28;20276;-84
2023/01/04 01:26:05;;;;;;;31.13;6.93;;;7.20;78.70;7.00;97606.00;;;;5036941;28;20575;-84
2023/01/04 01:28:35;;;;;;;24.50;6.00;;;7.20;78.80;7.00;97615.00;;;;5036868;28;20974;-85
2023/01/04 01:31:07;;;;;;;28.57;6.70;;;7.20;78.70;7.00;97620.00;;;;5036668;28;20236;-84
2023/01/04 01:33:36;;;;;;;30.47;6.20;;;7.30;78.90;7.10;97627.00;;;;5037503;28;20220;-84
2023/01/04 01:36:06;;;;;;;26.00;7.10;;;7.30;79.00;7.10;97623.00;;;;5039130;28;20203;-84
2023/01/04 01:38:33;;;;;;;27.63;6.87;;;7.30;79.10;7.10;97622.00;;;;5036480;28;20570;-84
2023/01/04 01:41:00;;;;;;;23.37;5.43;;;7.30;79.00;7.10;97616.00;;;;5038095;28;20236;-84
2023/01/04 01:43:51;;;;;;;29.07;6.60;;;7.30;78.90;7.10;97617.00;;;;5037162;28;21420;-84
2023/01/04 01:46:24;;;;;;;26.80;6.23;;;7.30;78.90;7.10;97623.00;;;;5038176;28;20223;-84
2023/01/04 01:48:58;;;;;;;26.13;6.03;;;7.30;78.90;7.10;97622.00;;;;5036546;28;20219;-84
2023/01/04 01:51:28;;;;;;;25.63;5.97;;;7.30;79.10;7.10;97629.00;;;;5038461;28;20319;-84
2023/01/04 01:54:03;;;;;;;23.63;6.37;;;7.30;79.10;7.10;97630.00;;;;5038357;28;20235;-84
2023/01/04 01:56:36;;;;;;;24.77;5.60;;;7.30;79.30;7.10;97630.00;;;;5036494;28;20587;-84
2023/01/04 01:59:04;;;;;;;36.53;7.00;;;7.30;79.40;7.20;97619.00;;;;5036788;28;20670;-84
2023/01/04 02:01:33;;;;;;;5.57;4.70;;;7.30;79.60;7.20;97611.00;;;;5037346;28;20229;-84
2023/01/04 02:04:03;;;;;;;27.40;5.70;;;7.30;79.70;7.20;97607.00;;;;5036241;28;20730;-84
2023/01/04 02:06:37;;;;;;;25.07;5.27;;;7.40;80.50;7.30;97613.00;;;;5037741;28;20196;-84
2023/01/04 02:09:05;;;;;;;22.60;4.93;;;7.40;79.80;7.30;97606.00;;;;5032416;28;20783;-84
2023/01/04 02:11:32;;;;;;;20.17;4.73;;;7.40;79.90;7.30;97616.00;;;;5035425;28;20206;-84
2023/01/04 02:17:04;;;;;;;25.70;5.43;;;7.50;80.00;7.40;97605.00;;;;5034822;28;20220;-84
2023/01/04 02:20:32;;;;;;;14.03;4.13;;;7.50;80.00;7.40;97600.00;;;;5036393;28;20201;-84
2023/01/04 02:23:50;;;;;;;5.20;3.13;;;7.60;80.10;7.40;97600.00;;;;5037522;28;20194;-84
2023/01/04 02:27:10;;;;;;;14.93;3.70;;;7.60;80.00;7.40;97586.00;;;;5036467;28;20776;-83
2023/01/04 02:30:15;;;;;;;3.00;2.80;;;7.60;80.50;7.40;97592.00;;;;5019670;28;20207;-84
2023/01/04 02:33:08;;;;;;;6.97;3.40;;;7.60;79.70;7.50;97607.00;;;;5037090;28;20291;-84
2023/01/04 02:35:53;;;;;;;9.53;4.07;;;7.70;79.90;7.60;97599.00;;;;5037067;28;20316;-85
2023/01/04 02:38:27;;;;;;;24.17;4.67;;;7.70;79.90;7.60;97602.00;;;;5035032;28;20750;-84
2023/01/04 02:41:05;;;;;;;19.90;4.53;;;7.70;79.80;7.70;97596.00;;;;5037378;28;20287;-84
2023/01/04 02:46:34;;;;;;;24.97;4.37;;;7.80;79.80;7.70;97600.00;;;;5036424;28;20197;-84
2023/01/04 02:51:44;;;;;;;24.40;4.60;;;7.90;80.50;7.70;97588.00;;;;4997077;28;20204;-84
2023/01/04 02:54:17;;;;;;;5.87;3.77;;;7.90;79.70;7.70;97596.00;;;;5037390;28;20604;-84
2023/01/04 02:57:02;;;;;;;10.30;3.80;;;7.90;79.70;7.80;97571.00;;;;5036222;28;20204;-84
2023/01/04 03:00:11;;;;;;;8.27;3.60;;;8.00;79.80;7.80;97570.00;;;;5035727;28;20304;-84
2023/01/04 03:06:16;;;;;;;12.27;4.07;;;8.00;79.70;7.80;97565.00;;;;5037388;28;20232;-84
2023/01/04 03:08:55;;;;;;;13.87;4.53;;;8.00;79.70;7.90;97561.00;;;;5037449;28;20656;-84
2023/01/04 03:14:21;;;;;;;8.50;4.20;;;8.00;79.50;7.90;97573.00;;;;5037726;28;20299;-84
2023/01/04 03:16:52;;;;;;;10.57;3.90;;;8.10;79.50;7.90;97573.00;;;;5038161;28;20217;-84
2023/01/04 03:36:17;;;;;;;4.50;3.80;;;8.20;79.40;8.00;97560.00;;;;5033914;28;20224;-83
2023/01/04 03:50:27;;;;;;;4.27;3.73;;;8.30;79.20;8.10;97549.00;;;;5034734;28;20197;-84
2023/01/04 03:52:58;;;;;;;6.10;3.80;;;8.30;79.10;8.10;97541.00;;;;5036847;28;20281;-84
2023/01/04 03:55:29;;;;;;;4.47;4.07;;;8.30;79.00;8.10;97528.00;;;;5034095;28;20311;-84
2023/01/04 03:57:59;;;;;;;4.23;3.93;;;8.30;78.90;8.20;97513.00;;;;5035426;28;20204;-83
2023/01/04 04:00:27;;;;;;;7.10;4.23;;;8.30;78.90;8.10;97512.00;;;;5034046;28;20300;-84
2023/01/04 04:03:06;;;;;;;11.13;4.10;;;8.30;78.70;8.10;97513.00;;;;5034737;28;20205;-84
2023/01/04 04:08:26;;;;;;;3.80;3.50;;;8.30;78.60;8.10;97500.00;;;;5036140;28;20221;-84
2023/01/04 04:11:28;;;;;;;7.93;4.67;;;8.30;78.50;8.10;97512.00;;;;5035971;28;20255;-84
2023/01/04 04:13:45;;;;;;;4.93;4.50;;;8.30;78.30;8.10;97511.00;;;;5036056;28;20200;-84
2023/01/04 04:16:12;;;;;;;4.70;4.23;;;8.30;78.20;8.10;97516.00;;;;5035076;28;20304;-84
2023/01/04 04:18:40;;;;;;;5.73;4.50;;;8.30;78.00;8.00;97522.00;;;;5034998;28;20645;-84
2023/01/04 04:21:07;;;;;;;5.00;4.50;;;8.20;77.80;8.00;97504.00;;;;5032884;28;20201;-85
2023/01/04 04:23:34;;;;;;;5.30;4.20;;;8.20;77.60;7.90;97510.00;;;;5033666;28;20211;-85
2023/01/04 04:26:03;;;;;;;6.77;4.60;;;8.20;77.60;7.90;97501.00;;;;5034397;28;20373;-85
2023/01/04 04:28:30;;;;;;;6.27;4.60;;;8.20;77.50;7.90;97495.00;;;;5033287;28;20228;-85
2023/01/04 04:30:57;;;;;;;7.80;4.50;;;8.10;77.60;7.90;97511.00;;;;5035949;28;20270;-84
2023/01/04 04:33:24;;;;;;;17.00;4.80;;;8.10;77.80;7.80;97498.00;;;;5034799;28;20735;-85
2023/01/04 04:35:52;;;;;;;9.47;4.40;;;8.10;77.90;7.80;97497.00;;;;5032079;28;20298;-85
2023/01/04 04:38:20;;;;;;;6.17;4.33;;;8.00;77.90;7.80;97501.00;;;;5036279;28;20288;-85
2023/01/04 04:43:35;;;;;;;14.40;4.80;;;8.00;78.10;7.80;97491.00;;;;5035064;28;20200;-84
2023/01/04 04:46:03;;;;;;;4.53;4.07;;;8.10;78.30;7.80;97493.00;;;;5033785;28;20304;-85
2023/01/04 04:48:30;;;;;;;6.33;4.10;;;8.00;79.10;7.80;97495.00;;;;5035386;28;20594;-85
2023/01/04 04:50:57;;;;;;;6.73;4.13;;;8.00;78.50;7.80;97489.00;;;;5034382;28;20292;-86
2023/01/04 04:53:24;;;;;;;25.70;4.87;;;8.00;78.50;7.90;97482.00;;;;5035229;28;20233;-85
2023/01/04 04:55:52;;;;;;;11.93;4.17;;;8.00;78.50;7.80;97484.00;;;;5034374;28;20232;-83
2023/01/04 04:58:19;;;;;;;24.13;4.90;;;8.00;78.40;7.80;97481.00;;;;5034653;28;20291;-85
2023/01/04 05:00:48;;;;;;;26.27;4.80;;;8.00;78.40;7.80;97483.00;;;;5034964;28;20200;-85
2023/01/04 05:03:15;;;;;;;28.23;5.07;;;8.00;78.40;7.80;97480.00;;;;5037110;28;20224;-85
2023/01/04 05:05:45;;;;;;;22.03;5.00;;;8.00;78.40;7.80;97482.00;;;;5038020;28;20225;-85
2023/01/04 05:08:13;;;;;;;35.77;5.03;;;7.90;78.30;7.80;97491.00;;;;5038710;28;20251;-85
2023/01/04 05:10:40;;;;;;;44.80;5.40;;;8.00;78.50;7.80;97483.00;;;;5038994;28;20204;-85
2023/01/04 05:13:11;;;;;;;19.37;4.27;;;8.00;78.50;7.80;97489.00;;;;5038281;28;20232;-85
2023/01/04 05:15:44;;;;;;;19.63;4.10;;;8.00;78.50;7.80;97489.00;;;;5037575;28;20232;-85
2023/01/04 05:18:15;;;;;;;15.73;4.27;;;8.00;78.60;7.80;97482.00;;;;5039190;28;20208;-84
2023/01/04 05:20:43;;;;;;;30.10;4.67;;;8.00;78.60;7.80;97488.00;;;;5036831;28;20287;-85
2023/01/04 05:23:13;;;;;;;21.13;3.97;;;8.00;78.60;7.70;97487.00;;;;5038317;28;20274;-85
2023/01/04 05:25:41;;;;;;;32.27;4.27;;;8.00;78.60;7.70;97497.00;;;;5039826;28;20610;-85
2023/01/04 05:28:09;;;;;;;19.43;4.20;;;7.90;78.50;7.70;97486.00;;;;5036967;28;20312;-85
2023/01/04 05:33:24;;;;;;;22.87;4.40;;;7.90;78.50;7.70;97495.00;;;;5037584;28;20197;-85
2023/01/04 05:35:54;;;;;;;3.67;3.37;;;7.90;78.50;7.70;97500.00;;;;5037417;28;20660;-85
2023/01/04 05:38:22;;;;;;;16.37;4.57;;;7.90;78.40;7.70;97499.00;;;;5037332;28;20787;-85
2023/01/04 05:40:51;;;;;;;11.23;4.10;;;7.80;78.40;7.60;97498.00;;;;5037231;28;20669;-85
2023/01/04 05:43:20;;;;;;;18.03;4.37;;;7.80;78.40;7.60;97503.00;;;;5038312;28;20241;-85
2023/01/04 05:45:49;;;;;;;11.67;4.20;;;7.80;79.20;7.60;97517.00;;;;5037364;28;20213;-85
2023/01/04 05:48:17;;;;;;;14.53;4.47;;;7.90;78.70;7.70;97515.00;;;;5038689;28;20221;-85
2023/01/04 05:50:46;;;;;;;4.60;3.43;;;7.80;78.70;7.70;97510.00;;;;5038115;28;20585;-84
2023/01/04 05:53:16;;;;;;;7.20;4.50;;;7.80;78.80;7.70;97513.00;;;;5038139;28;20587;-84
2023/01/04 05:55:43;;;;;;;9.77;4.30;;;7.90;79.00;7.70;97515.00;;;;5037650;28;20258;-85
2023/01/04 05:58:10;;;;;;;6.57;4.07;;;7.90;79.10;7.80;97515.00;;;;5037264;28;20197;-85
2023/01/04 06:00:37;;;;;;;6.27;4.17;;;7.90;79.20;7.80;97503.00;;;;5038388;28;20220;-85
2023/01/04 06:03:05;;;;;;;13.47;4.40;;;7.90;79.20;7.80;97505.00;;;;5036464;28;20211;-85
2023/01/04 06:05:32;;;;;;;4.97;4.57;;;7.90;79.10;7.80;97497.00;;;;5036620;28;20336;-85
2023/01/04 06:08:00;;;;;;;5.73;4.33;;;7.90;79.10;7.80;97502.00;;;;5037696;28;21303;-85
2023/01/04 06:10:27;;;;;;;7.97;5.07;;;8.00;78.90;7.90;97493.00;;;;5037312;28;20197;-85
2023/01/04 06:12:54;;;;;;;14.53;4.80;;;8.00;78.80;7.90;97503.00;;;;5036848;28;21228;-85
2023/01/04 06:15:21;;;;;;;4.77;4.37;;;8.00;78.80;7.90;97512.00;;;;5037649;28;20565;-85
2023/01/04 06:17:49;;;;;;;4.30;3.90;;;8.00;78.90;7.90;97503.00;;;;5036897;28;20236;-85
2023/01/04 06:20:16;;;;;;;4.40;3.67;;;8.00;78.80;7.90;97497.00;;;;5037280;28;20277;-85
2023/01/04 06:22:43;;;;;;;6.50;3.90;;;8.00;78.70;7.90;97494.00;;;;5038725;28;20292;-85
2023/01/04 06:25:11;;;;;;;13.67;4.13;;;8.10;78.70;7.90;97489.00;;;;5036901;28;21371;-85
2023/01/04 06:27:39;;;;;;;7.77;4.03;;;8.00;78.50;7.90;97497.00;;;;5036757;28;20205;-85
2023/01/04 06:30:08;;;;;;;5.53;4.10;;;8.00;78.50;7.90;97487.00;;;;5036492;28;20223;-85
2023/01/04 06:32:36;;;;;;;4.57;4.17;;;8.00;78.60;7.90;97496.00;;;;5037388;28;20237;-85
2023/01/04 06:35:04;;;;;;;8.03;4.30;;;8.00;78.60;7.90;97495.00;;;;5036293;28;20229;-85
2023/01/04 06:37:31;;;;;;;5.03;4.53;;;8.10;78.60;7.90;97499.00;;;;5036007;28;20207;-85
2023/01/04 06:39:58;;;;;;;7.30;4.40;;;8.10;78.70;8.00;97495.00;;;;5036999;28;20739;-85
2023/01/04 06:42:45;;;;;;;4.87;4.37;;;8.10;78.60;8.00;97493.00;;;;5037830;28;20359;-86
2023/01/04 06:45:13;;;;;;;8.83;4.97;;;8.10;78.50;7.90;97487.00;;;;5037022;28;20228;-85
2023/01/04 06:47:41;;;;;;;11.03;4.57;;;8.10;78.30;7.90;97473.00;;;;5036938;28;20251;-85
2023/01/04 06:50:09;;;;;;;21.40;5.20;;;8.10;78.10;7.80;97474.00;;;;5036965;28;20276;-85
2023/01/04 06:52:37;;;;;;;12.20;4.90;;;8.00;77.90;7.80;97481.00;;;;5036430;28;20203;-85
2023/01/04 06:55:04;;;;;;;13.83;5.73;;;8.00;77.90;7.80;97480.00;;;;5035602;28;20343;-85
2023/01/04 06:57:33;;;;;;;16.90;5.47;;;8.00;78.00;7.80;97475.00;;;;5037143;28;20613;-85
2023/01/04 07:00:00;;;;;;;12.17;5.03;;;8.00;78.00;7.80;97468.00;;;;5035492;28;20200;-85
2023/01/04 07:02:27;;;;;;;12.40;5.47;;;8.00;78.00;7.80;97467.00;;;;5037488;28;20291;-85
2023/01/04 07:04:55;;;;;;;19.23;5.10;;;7.90;77.90;7.70;97459.00;;;;5036904;28;20217;-85
2023/01/04 07:07:22;;;;;;;13.60;5.60;;;7.90;77.90;7.70;97460.00;;;;5035445;28;20225;-85
2023/01/04 07:09:49;;;;;;;20.23;5.93;;;7.90;78.00;7.70;97463.00;;;;5036093;28;20316;-85
2023/01/04 07:12:16;;;;;;;21.67;6.00;;;7.90;78.10;7.70;97459.00;;;;5037697;28;20248;-83
2023/01/04 07:14:44;;;;;;;19.30;6.00;;;7.90;78.10;7.70;97456.00;;;;5036717;28;20327;-85
2023/01/04 07:17:11;;;;;;;9.37;5.00;;;7.90;78.00;7.70;97459.00;;;;5034441;28;20337;-85
2023/01/04 07:19:38;;;;;;;12.37;5.33;;;7.90;78.00;7.60;97466.00;;;;5036661;28;20281;-85
2023/01/04 07:22:06;;;;;;;11.00;4.93;;;7.90;77.90;7.60;97449.00;;;;5036168;28;20296;-85
2023/01/04 07:24:33;;;;;;;7.83;4.67;;;7.90;77.90;7.60;97450.00;;;;5036230;28;20282;-85
2023/01/04 07:27:00;;;;;;;7.37;4.97;;;7.80;77.70;7.60;97453.00;;;;5037698;28;20236;-85
2023/01/04 07:29:28;;;;;;;20.17;4.97;;;7.80;77.70;7.60;97455.00;;;;5035211;28;20261;-85
2023/01/04 07:31:57;;;;;;;8.50;5.67;;;7.80;77.50;7.50;97455.00;;;;5036502;28;20197;-85
2023/01/04 07:34:26;;;;;;;29.93;6.87;;;7.80;77.50;7.50;97461.00;;;;5039169;28;20231;-85
2023/01/04 07:36:53;;;;;;;39.10;6.93;;;7.70;77.40;7.50;97459.00;;;;5035610;28;20213;-84
2023/01/04 07:39:21;;;;;;;6.83;5.33;;;7.70;77.60;7.50;97455.00;;;;5039444;28;20221;-85
2023/01/04 07:41:50;;;;;;;7.73;5.97;;;7.70;77.70;7.50;97453.00;;;;5036209;28;20193;-85
2023/01/04 07:44:17;;;;;;;11.57;6.40;;;7.70;77.50;7.50;97450.00;;;;5035411;28;20217;-85
2023/01/04 07:46:45;;;;;;;7.67;5.77;;;7.70;77.40;7.40;97450.00;;;;5036600;28;20212;-85
2023/01/04 07:49:17;;;;;;;14.20;10.47;;;7.60;77.30;7.40;97445.00;;;;5037186;28;20225;-85
2023/01/04 07:51:44;;;;;;;13.47;9.43;;;7.60;77.20;7.40;97433.00;;;;5036573;28;20212;-85
2023/01/04 07:54:12;;;;;;;12.20;8.60;;;7.60;77.30;7.40;97436.00;;;;5035406;28;20223;-85
2023/01/04 07:56:39;;;;;;;17.57;8.83;;;7.60;77.30;7.40;97429.00;;;;5036077;28;20739;-85
2023/01/04 07:59:07;;;;;;;8.27;7.03;;;7.60;77.60;7.40;97432.00;;;;5036977;28;20575;-85
2023/01/04 08:01:37;;;;;;;12.93;8.03;;;7.60;77.70;7.40;97430.00;;;;5034727;28;20243;-90
2023/01/04 08:04:04;;;;;;;7.03;6.33;;;7.50;77.90;7.50;97436.00;;;;5035420;28;20234;-89
2023/01/04 08:06:34;;;;;;;12.97;7.43;;;7.60;78.00;7.50;97435.00;;;;5035695;28;20197;-90
2023/01/04 08:09:02;;;;;;;12.30;7.00;;;7.60;77.90;7.60;97426.00;;;;5035792;28;20315;-88
2023/01/04 08:11:29;;;;;;;8.27;7.47;;;7.60;78.00;7.60;97426.00;;;;5037285;28;21080;-87
2023/01/04 08:13:56;;;;;;;13.07;7.37;;;7.70;78.20;7.70;97420.00;;;;5034549;28;20292;-89
2023/01/04 08:16:27;;;;;;;14.30;6.47;;;7.70;78.20;7.80;97423.00;;;;5035674;28;20822;-90
2023/01/04 08:18:56;;;;;;;8.27;6.60;;;7.80;78.50;7.90;97410.00;;;;5035240;28;20220;-90
2023/01/04 08:21:25;;;;;;;11.03;5.53;;;7.80;78.70;7.90;97426.00;;;;5034828;28;20204;-88
2023/01/04 08:23:54;;;;;;;8.60;5.13;;;7.80;78.90;8.00;97418.00;;;;5034984;28;20694;-89
2023/01/04 08:26:22;;;;;;;4.80;4.40;;;7.90;79.10;8.00;97415.00;;;;5036606;28;20291;-88
2023/01/04 08:28:50;;;;;;;4.93;4.43;;;7.90;79.30;8.10;97416.00;;;;5035721;28;20256;-90
2023/01/04 08:31:20;;;;;;;19.57;5.17;;;8.00;79.40;8.20;97422.00;;;;5037013;28;20732;-91
2023/01/04 08:33:48;;;;;;;11.10;5.00;;;8.10;79.60;8.30;97425.00;;;;5036129;28;20201;-90
2023/01/04 08:36:20;;;;;;;5.37;4.70;;;8.20;79.70;8.40;97427.00;;;;5037263;28;21011;-90
2023/01/04 08:38:47;;;;;;;6.43;4.60;;;8.30;80.00;8.50;97427.00;;;;5040789;28;20205;-90
2023/01/04 08:41:18;;;;;;;7.23;4.90;;;8.30;80.10;8.70;97422.00;;;;5039980;28;20702;-90
2023/01/04 08:43:45;;;;;;;8.03;4.67;;;8.40;80.50;8.80;97427.00;;;;5040647;28;20628;-89
2023/01/04 08:46:14;;;;;;;7.13;5.17;;;8.50;80.80;8.90;97431.00;;;;5038930;28;20276;-87
2023/01/04 08:48:42;;;;;;;5.00;4.50;;;8.60;81.00;9.00;97429.00;;;;5038515;28;20278;-89
2023/01/04 08:51:14;;;;;;;6.40;3.83;;;8.70;81.30;9.20;97426.00;;;;5039376;28;20215;-90
2023/01/04 08:53:43;;;;;;;6.63;3.60;;;8.80;81.60;9.30;97419.00;;;;5037391;28;20225;-89
2023/01/04 08:56:11;;;;;;;3.50;3.20;;;9.00;81.60;9.40;97419.00;;;;5039254;28;20295;-90
2023/01/04 08:58:39;;;;;;;4.50;2.87;;;9.10;81.50;9.50;97413.00;;;;5039667;28;20204;-90
2023/01/04 09:01:08;;;;;;;11.73;3.73;;;9.20;81.40;9.60;97407.00;;;;5023304;28;20283;-89
2023/01/04 09:03:37;;;;;;;2.97;2.70;;;9.40;81.40;9.70;97412.00;;;;5037050;28;20232;-89
2023/01/04 09:06:07;;;;;;;15.83;3.30;;;9.40;81.30;9.80;97412.00;;;;5038871;28;20284;-90
2023/01/04 09:08:36;;;;;;;14.07;3.03;;;9.50;81.20;9.90;97412.00;;;;5038667;28;20206;-90
2023/01/04 09:11:11;;;;;;;23.00;4.03;;;9.60;81.20;10.00;97403.00;;;;5038291;28;20283;-90
2023/01/04 09:13:39;;;;;;;11.07;3.50;;;9.70;81.10;10.00;97405.00;;;;5037565;28;20189;-90
2023/01/04 09:16:11;;;;;;;9.00;3.27;;;9.80;81.00;10.10;97411.00;;;;5038209;28;20295;-90
2023/01/04 09:18:38;;;;;;;3.20;2.93;;;9.90;81.00;10.30;97407.00;;;;5036542;28;20189;-89
2023/01/04 09:21:07;;;;;;;2.67;2.47;;;10.00;81.10;10.40;97406.00;;;;5037309;28;20208;-88
2023/01/04 09:23:34;;;;;;;10.40;3.07;;;10.10;81.20;10.50;97407.00;;;;5035518;28;20296;-88
2023/01/04 09:26:06;;;;;;;8.27;2.77;;;10.20;81.30;10.60;97406.00;;;;5037302;28;20203;-86
2023/01/04 09:28:34;;;;;;;2.70;2.50;;;10.30;81.30;10.70;97394.00;;;;5036541;28;20210;-89
2023/01/04 09:31:07;;;;;;;2.60;2.03;;;10.40;81.30;10.80;97399.00;;;;5039528;28;20670;-88
2023/01/04 09:33:35;;;;;;;4.20;2.07;;;10.50;81.20;10.90;97391.00;;;;5037411;28;20209;-88
2023/01/04 09:36:03;;;;;;;7.17;2.17;;;10.60;81.20;11.00;97393.00;;;;5039470;28;20284;-87
2023/01/04 09:38:30;;;;;;;10.13;2.20;;;10.70;81.10;11.10;97391.00;;;;5037798;28;20189;-89
2023/01/04 09:41:10;;;;;;;2.70;1.90;;;10.80;81.00;11.10;97392.00;;;;5036194;28;20866;-88
2023/01/04 09:43:46;;;;;;;1.80;1.70;;;10.90;80.90;11.20;97395.00;;;;5035968;28;20224;-89
2023/01/04 09:46:26;;;;;;;1.60;1.50;;;11.00;80.80;11.30;97393.00;;;;5037697;28;20204;-89
2023/01/04 09:49:05;;;;;;;1.70;1.60;;;11.10;80.70;11.40;97396.00;;;;5036409;28;20216;-89
2023/01/04 09:51:38;;;;;;;3.50;2.97;;;11.20;80.70;11.50;97399.00;;;;5037578;28;20226;-89
2023/01/04 09:54:15;;;;;;;9.40;3.00;;;11.30;80.80;11.60;97386.00;;;;5037717;28;20255;-89
2023/01/04 09:56:52;;;;;;;2.70;2.50;;;11.40;80.80;11.70;97392.00;;;;5037552;28;20303;-89
2023/01/04 09:59:31;;;;;;;3.10;2.10;;;11.50;80.80;11.90;97387.00;;;;5040275;28;20311;-85
2023/01/04 10:02:10;;;;;;;3.60;2.93;;;11.60;80.50;12.00;97392.00;;;;5037442;28;20669;-86
2023/01/04 10:04:48;;;;;;;3.33;3.03;;;11.70;80.60;12.10;97385.00;;;;5036264;28;20311;-87
2023/01/04 10:07:26;;;;;;;2.00;1.90;;;11.80;80.50;12.30;97377.00;;;;5037940;28;20205;-88
2023/01/04 10:09:54;;;;;;;1.80;1.70;;;12.00;80.40;12.40;97375.00;;;;5035916;28;20710;-90
2023/01/04 10:12:45;;;;;;;1.77;1.67;;;12.10;81.10;12.50;97369.00;;;;5037204;28;20237;-90
2023/01/04 10:15:34;;;;;;;1.60;1.50;;;12.20;80.10;12.70;97361.00;;;;5038110;28;20306;-89
2023/01/04 10:18:22;;;;;;;2.77;1.57;;;12.30;80.10;12.90;97362.00;;;;5039470;28;20304;-91
2023/01/04 10:21:07;;;;;;;1.20;1.10;;;12.50;80.00;13.00;97355.00;;;;5037170;28;20292;-91
2023/01/04 10:23:59;;;;;;;1.33;1.10;;;12.60;79.60;13.10;97347.00;;;;5036674;28;20296;-92
2023/01/04 10:26:37;;;;;;;1.50;1.37;;;12.70;79.10;13.20;97350.00;;;;5036581;28;20292;-90
2023/01/04 10:29:39;;;;;;;1.13;1.03;;;12.80;79.20;13.30;97339.00;;;;5036528;28;20232;-90
2023/01/04 10:32:19;;;;;;;1.10;1.00;;;13.00;78.60;13.40;97335.00;;;;5037408;28;20222;-90
2023/01/04 10:34:48;;;;;;;1.77;1.10;;;13.10;78.30;13.50;97336.00;;;;5035789;28;20261;-91
2023/01/04 10:37:22;;;;;;;1.33;1.20;;;13.20;78.20;13.60;97326.00;;;;5039413;28;20258;-89
2023/01/04 10:39:56;;;;;;;2.43;1.13;;;13.30;77.90;13.60;97316.00;;;;5037882;28;20303;-91
2023/01/04 10:42:33;;;;;;;1.13;1.03;;;13.30;77.70;13.70;97308.00;;;;5034896;28;20295;-92
2023/01/04 10:45:17;;;;;;;5.37;1.10;;;13.40;77.20;13.70;97309.00;;;;5036542;28;20316;-89
2023/01/04 10:47:56;;;;;;;1.93;1.17;;;13.50;77.10;13.80;97305.00;;;;5036717;28;20956;-91
2023/01/04 10:50:33;;;;;;;3.53;0.97;;;13.50;76.80;13.80;97302.00;;;;5036513;28;20216;-91
2023/01/04 10:53:07;;;;;;;1.83;1.13;;;13.60;76.60;13.80;97297.00;;;;5035201;28;20200;-90
2023/01/04 10:55:43;;;;;;;1.07;0.97;;;13.60;77.20;13.80;97291.00;;;;5038133;28;20714;-90
2023/01/04 10:58:20;;;;;;;2.57;1.13;;;13.80;76.10;13.90;97287.00;;;;5036858;28;20220;-90
2023/01/04 11:00:56;;;;;;;1.40;1.30;;;13.70;75.70;13.90;97277.00;;;;5033520;28;20201;-90
2023/01/04 11:03:33;;;;;;;1.07;0.97;;;13.70;75.50;13.90;97282.00;;;;5036678;28;20283;-90
2023/01/04 11:06:13;;;;;;;1.00;0.90;;;13.70;75.30;13.90;97276.00;;;;5034687;28;20295;-91
2023/01/04 11:08:47;;;;;;;1.23;1.00;;;13.80;74.90;13.90;97285.00;;;;5037818;28;20196;-90
2023/01/04 11:11:22;;;;;;;1.13;0.90;;;13.70;74.80;14.00;97282.00;;;;5037408;28;20300;-91
2023/01/04 11:13:50;;;;;;;1.20;1.10;;;13.80;75.00;14.00;97275.00;;;;5035918;28;20197;-91
2023/01/04 11:16:18;;;;;;;1.47;1.10;;;13.80;74.50;14.00;97277.00;;;;5035472;28;20727;-91
2023/01/04 11:18:50;;;;;;;1.50;1.40;;;13.80;74.50;14.00;97273.00;;;;5034090;28;20220;-91
2023/01/04 11:21:26;;;;;;;1.63;1.53;;;13.80;74.20;14.00;97271.00;;;;5035022;28;20201;-91
2023/01/04 11:23:57;;;;;;;2.90;1.67;;;13.80;73.90;14.00;97279.00;;;;5033844;28;21097;-91
2023/01/04 11:26:33;;;;;;;1.33;1.23;;;13.90;74.30;14.00;97282.00;;;;5034678;28;20200;-91
2023/01/04 11:29:06;;;;;;;1.73;1.63;;;13.90;73.90;14.00;97281.00;;;;5034843;28;20289;-91
2023/01/04 11:31:48;;;;;;;1.33;1.23;;;13.90;73.90;14.10;97281.00;;;;5035005;28;20295;-91
2023/01/04 11:34:15;;;;;;;1.63;1.40;;;13.90;73.40;14.10;97273.00;;;;5031442;28;20223;-92
2023/01/04 11:36:46;;;;;;;1.77;1.63;;;14.00;73.80;14.10;97279.00;;;;5028498;28;20285;-91
2023/01/04 11:39:22;;;;;;;4.43;2.10;;;14.00;73.70;14.10;97274.00;;;;5030008;28;20292;-91
2023/01/04 11:41:56;;;;;;;1.83;1.27;;;14.00;73.50;14.20;97267.00;;;;5030567;28;20702;-89
2023/01/04 11:44:24;;;;;;;2.27;1.03;;;14.00;73.10;14.20;97263.00;;;;5032807;28;20697;-90
2023/01/04 11:47:09;;;;;;;1.73;1.10;;;14.00;73.40;14.20;97248.00;;;;5035195;28;20193;-91
2023/01/04 11:49:37;;;;;;;1.37;1.00;;;14.10;72.50;14.20;97240.00;;;;5035387;28;20231;-90
2023/01/04 11:52:07;;;;;;;1.37;0.80;;;14.10;73.80;14.20;97241.00;;;;5035338;28;20211;-90
2023/01/04 11:54:34;;;;;;;1.90;0.83;;;14.10;72.70;14.30;97240.00;;;;5035867;28;20729;-92
2023/01/04 11:57:05;;;;;;;0.73;0.73;;;14.10;72.30;14.30;97239.00;;;;5037438;28;20205;-92
2023/01/04 11:59:33;;;;;;;0.67;0.67;;;14.10;71.80;14.30;97243.00;;;;5037216;28;21018;-91
2023/01/04 12:02:23;;;;;;;0.70;0.70;;;14.10;71.50;14.30;97234.00;;;;5037715;28;20192;-88
2023/01/04 12:04:52;;;;;;;0.50;0.50;;;14.20;69.90;14.40;97227.00;;;;5037036;28;20268;-91
2023/01/04 12:07:30;;;;;;;1.43;0.60;;;14.20;70.90;14.40;97227.00;;;;5035166;28;20201;-91
2023/01/04 12:09:59;;;;;;;0.60;0.60;;;14.20;70.50;14.50;97223.00;;;;5036444;28;20559;-90
2023/01/04 12:12:31;;;;;;;0.40;0.40;;;14.30;70.60;14.50;97232.00;;;;5038729;28;20201;-90
2023/01/04 12:15:05;;;;;;;1.63;0.40;;;14.30;70.10;14.50;97227.00;;;;5038853;28;20295;-89